createdAt,value
2022-11-12T00:01:58.854Z,9.23
2022-11-12T00:04:45.236Z,12.15
2022-11-12T00:07:31.753Z,10.55
2022-11-12T00:10:18.427Z,10.93
2022-11-12T00:13:04.985Z,11.10
2022-11-12T00:15:51.449Z,8.75
2022-11-12T00:18:39.516Z,8.38
2022-11-12T00:21:26.095Z,8.15
2022-11-12T00:24:13.158Z,8.25
2022-11-12T00:26:59.477Z,8.00
2022-11-12T00:29:46.219Z,8.95
2022-11-12T00:32:32.874Z,7.53
2022-11-12T00:35:20.769Z,8.68
2022-11-12T00:38:07.437Z,8.77
2022-11-12T00:40:54.389Z,8.77
2022-11-12T00:43:40.965Z,9.20
2022-11-12T00:46:27.889Z,8.73
2022-11-12T00:49:15.074Z,7.68
2022-11-12T00:52:02.978Z,8.18
2022-11-12T00:54:50.015Z,7.78
2022-11-12T00:57:36.798Z,7.20
2022-11-12T01:00:23.736Z,6.72
2022-11-12T01:03:10.343Z,6.90
2022-11-12T01:06:03.847Z,6.70
2022-11-12T01:08:52.569Z,6.05
2022-11-12T01:11:41.824Z,8.07
2022-11-12T01:14:28.733Z,7.60
2022-11-12T01:17:14.990Z,6.35
2022-11-12T01:20:01.364Z,8.05
2022-11-12T01:22:47.875Z,6.53
2022-11-12T01:25:38.698Z,7.10
2022-11-12T01:28:26.104Z,7.68
2022-11-12T01:31:15.408Z,6.40
2022-11-12T01:34:05.596Z,7.50
2022-11-12T01:36:51.870Z,7.50
2022-11-12T01:39:38.539Z,7.80
2022-11-12T01:42:31.344Z,8.10
2022-11-12T01:45:18.051Z,7.18
2022-11-12T01:48:05.089Z,5.90
2022-11-12T01:50:52.463Z,6.95
2022-11-12T01:53:44.983Z,7.65
2022-11-12T01:56:32.837Z,6.32
2022-11-12T01:59:30.786Z,7.45
2022-11-12T02:02:17.304Z,5.97
2022-11-12T02:05:05.826Z,6.47
2022-11-12T02:07:54.401Z,6.45
2022-11-12T02:10:42.016Z,5.70
2022-11-12T02:13:46.103Z,7.10
2022-11-12T02:16:37.139Z,6.20
2022-11-12T02:19:27.106Z,6.57
2022-11-12T02:22:14.950Z,5.80
2022-11-12T02:25:01.690Z,5.55
2022-11-12T02:27:51.929Z,5.55
2022-11-12T02:30:40.962Z,6.28
2022-11-12T02:33:27.623Z,5.93
2022-11-12T02:36:14.702Z,6.28
2022-11-12T02:39:02.371Z,7.10
2022-11-12T02:41:48.967Z,6.47
2022-11-12T02:44:35.829Z,6.20
2022-11-12T02:47:22.436Z,6.78
2022-11-12T02:50:09.946Z,8.18
2022-11-12T02:52:56.450Z,6.60
2022-11-12T02:55:45.083Z,5.85
2022-11-12T02:58:31.837Z,6.65
2022-11-12T03:01:18.625Z,7.05
2022-11-12T03:04:05.315Z,6.57
2022-11-12T03:06:52.566Z,7.70
2022-11-12T03:09:39.258Z,7.93
2022-11-12T03:12:27.343Z,7.57
2022-11-12T03:15:13.818Z,6.97
2022-11-12T03:18:00.250Z,7.85
2022-11-12T03:20:47.021Z,6.00
2022-11-12T03:23:33.484Z,7.15
2022-11-12T03:26:20.236Z,7.85
2022-11-12T03:29:08.650Z,6.32
2022-11-12T03:31:55.690Z,5.13
2022-11-12T03:34:44.557Z,8.55
2022-11-12T03:37:31.392Z,6.57
2022-11-12T03:40:19.376Z,7.10
2022-11-12T03:43:05.778Z,5.85
2022-11-12T03:45:53.928Z,6.60
2022-11-12T03:48:40.819Z,5.78
2022-11-12T03:51:27.359Z,7.45
2022-11-12T03:54:14.129Z,7.45
2022-11-12T03:57:00.938Z,5.45
2022-11-12T03:59:47.843Z,6.95
2022-11-12T04:02:35.919Z,5.10
2022-11-12T04:05:46.152Z,5.30
2022-11-12T04:08:38.821Z,5.80
2022-11-12T04:11:25.799Z,6.55
2022-11-12T04:14:12.413Z,5.47
2022-11-12T04:17:16.375Z,6.13
2022-11-12T04:20:22.381Z,6.38
2022-11-12T04:23:09.034Z,4.95
2022-11-12T04:26:13.557Z,5.70
2022-11-12T04:29:17.837Z,5.13
2022-11-12T04:32:25.419Z,5.65
2022-11-12T04:35:13.647Z,8.20
2022-11-12T04:38:00.293Z,5.05
2022-11-12T04:41:04.271Z,6.97
2022-11-12T04:44:08.578Z,5.57
2022-11-12T04:46:55.074Z,7.15
2022-11-12T04:49:41.853Z,6.10
2022-11-12T04:52:39.443Z,5.45
2022-11-12T04:55:26.325Z,5.32
2022-11-12T04:58:13.367Z,6.78
2022-11-12T05:00:59.937Z,6.25
2022-11-12T05:03:46.687Z,6.25
2022-11-12T05:06:50.752Z,6.20
2022-11-12T05:09:39.207Z,5.85
2022-11-12T05:12:26.013Z,5.93
2022-11-12T05:15:12.756Z,7.15
2022-11-12T05:17:59.064Z,5.60
2022-11-12T05:20:45.641Z,4.97
2022-11-12T05:23:32.636Z,5.40
2022-11-12T05:26:20.537Z,4.68
2022-11-12T05:29:08.845Z,4.95
2022-11-12T05:31:56.472Z,5.70
2022-11-12T05:34:43.525Z,6.28
2022-11-12T05:37:31.164Z,5.90
2022-11-12T05:40:29.926Z,8.00
2022-11-12T05:43:18.475Z,5.55
2022-11-12T05:46:06.193Z,5.20
2022-11-12T05:48:53.030Z,5.10
2022-11-12T05:51:40.001Z,4.45
2022-11-12T05:54:27.154Z,4.47
2022-11-12T05:57:14.181Z,5.00
2022-11-12T06:00:02.794Z,4.57
2022-11-12T06:02:52.351Z,6.03
2022-11-12T06:05:40.932Z,5.88
2022-11-12T06:08:29.899Z,4.60
2022-11-12T06:11:17.716Z,5.10
2022-11-12T06:14:07.627Z,4.45
2022-11-12T06:16:57.782Z,4.28
2022-11-12T06:19:45.646Z,5.93
2022-11-12T06:22:34.875Z,5.25
2022-11-12T06:25:24.558Z,4.18
2022-11-12T06:28:13.423Z,4.40
2022-11-12T06:31:01.841Z,4.90
2022-11-12T06:33:53.336Z,4.95
2022-11-12T06:36:42.996Z,5.32
2022-11-12T06:39:30.094Z,5.15
2022-11-12T06:42:17.526Z,8.98
2022-11-12T06:45:05.615Z,8.15
2022-11-12T06:47:52.273Z,7.00
2022-11-12T06:50:40.678Z,6.47
2022-11-12T06:53:27.277Z,7.07
2022-11-12T06:56:14.875Z,6.85
2022-11-12T06:59:01.723Z,5.50
2022-11-12T07:01:54.892Z,5.95
2022-11-12T07:04:41.816Z,6.60
2022-11-12T07:07:30.154Z,5.72
2022-11-12T07:10:17.501Z,6.57
2022-11-12T07:13:04.761Z,4.55
2022-11-12T07:15:51.419Z,5.78
2022-11-12T07:18:38.600Z,5.10
2022-11-12T07:21:25.115Z,4.90
2022-11-12T07:24:13.400Z,6.63
2022-11-12T07:27:00.202Z,5.75
2022-11-12T07:29:48.631Z,5.47
2022-11-12T07:32:41.962Z,5.43
2022-11-12T07:35:30.075Z,6.32
2022-11-12T07:38:16.949Z,5.90
2022-11-12T07:41:06.902Z,4.85
2022-11-12T07:43:55.144Z,6.55
2022-11-12T07:46:42.014Z,5.97
2022-11-12T07:49:28.668Z,7.00
2022-11-12T07:52:15.460Z,6.75
2022-11-12T07:55:02.011Z,8.65
2022-11-12T07:57:50.605Z,5.80
2022-11-12T08:00:37.110Z,6.38
2022-11-12T08:03:24.841Z,6.03
2022-11-12T08:06:11.601Z,5.28
2022-11-12T08:08:59.769Z,4.88
2022-11-12T08:11:46.580Z,4.95
2022-11-12T08:14:34.867Z,5.53
2022-11-12T08:17:24.940Z,5.30
2022-11-12T08:20:13.143Z,5.63
2022-11-12T08:23:02.491Z,4.25
2022-11-12T08:25:49.456Z,5.70
2022-11-12T08:28:37.584Z,5.43
2022-11-12T08:31:25.631Z,5.45
2022-11-12T08:34:19.942Z,5.05
2022-11-12T08:37:09.662Z,5.80
2022-11-12T08:39:56.598Z,4.88
2022-11-12T08:42:43.434Z,4.97
2022-11-12T08:45:32.683Z,4.88
2022-11-12T08:48:21.206Z,5.65
2022-11-12T08:51:08.951Z,5.00
2022-11-12T08:53:55.702Z,4.57
2022-11-12T08:56:42.614Z,4.28
2022-11-12T08:59:29.704Z,4.68
2022-11-12T09:02:16.245Z,4.47
2022-11-12T09:05:04.900Z,5.65
2022-11-12T09:07:58.590Z,3.97
2022-11-12T09:10:46.258Z,3.83
2022-11-12T09:13:33.598Z,3.97
2022-11-12T09:16:21.526Z,3.55
2022-11-12T09:19:08.339Z,4.50
2022-11-12T09:21:56.350Z,3.90
2022-11-12T09:24:43.045Z,3.75
2022-11-12T09:27:30.915Z,3.97
2022-11-12T09:30:18.255Z,4.45
2022-11-12T09:33:05.333Z,4.70
2022-11-12T09:35:52.886Z,3.88
2022-11-12T09:38:41.017Z,6.82
2022-11-12T09:41:32.820Z,4.05
2022-11-12T09:44:22.256Z,3.70
2022-11-12T09:47:17.421Z,3.60
2022-11-12T09:50:18.355Z,3.70
2022-11-12T09:53:13.462Z,3.45
2022-11-12T09:56:06.832Z,3.75
2022-11-12T09:58:55.337Z,3.17
2022-11-12T10:01:51.303Z,3.28
2022-11-12T10:04:50.610Z,3.03
2022-11-12T10:07:51.592Z,2.65
2022-11-12T10:10:46.009Z,3.47
2022-11-12T10:13:45.060Z,2.67
2022-11-12T10:16:50.339Z,3.22
2022-11-12T10:19:48.198Z,3.83
2022-11-12T10:22:47.083Z,2.70
2022-11-12T10:25:36.173Z,2.90
2022-11-12T10:28:30.943Z,4.05
2022-11-12T10:31:22.651Z,2.80
2022-11-12T10:34:18.632Z,2.92
2022-11-12T10:37:07.928Z,3.95
2022-11-12T10:39:54.819Z,3.33
2022-11-12T10:42:58.122Z,2.88
2022-11-12T10:45:45.338Z,4.13
2022-11-12T10:48:55.223Z,2.75
2022-11-12T10:51:42.097Z,2.83
2022-11-12T10:54:31.646Z,3.08
2022-11-12T10:57:24.425Z,3.30
2022-11-12T11:00:20.207Z,3.10
2022-11-12T11:03:16.752Z,2.80
2022-11-12T11:06:07.758Z,6.20
2022-11-12T11:08:58.033Z,7.85
2022-11-12T11:11:55.191Z,7.63
2022-11-12T11:14:45.621Z,8.65
2022-11-12T11:17:37.217Z,7.55
2022-11-12T11:20:30.368Z,7.18
2022-11-12T11:23:23.427Z,7.63
2022-11-12T11:26:29.181Z,7.57
2022-11-12T11:29:34.872Z,7.88
2022-11-12T11:32:38.316Z,8.77
2022-11-12T11:35:38.676Z,8.57
2022-11-12T11:38:37.603Z,8.68
2022-11-12T11:41:50.508Z,9.55
2022-11-12T11:44:43.112Z,9.20
2022-11-12T11:47:59.912Z,8.07
2022-11-12T11:50:58.739Z,8.05
2022-11-12T11:54:01.472Z,8.45
2022-11-12T11:56:51.279Z,10.52
2022-11-12T11:59:47.865Z,8.65
2022-11-12T12:02:51.199Z,9.05
2022-11-12T12:05:44.261Z,9.25
2022-11-12T12:08:47.905Z,11.85
2022-11-12T12:11:45.164Z,10.30
2022-11-12T12:14:48.211Z,11.55
2022-11-12T12:17:45.106Z,10.45
2022-11-12T12:20:41.462Z,10.38
2022-11-12T12:23:34.330Z,9.85
2022-11-12T12:26:26.648Z,10.55
2022-11-12T12:29:19.515Z,9.70
2022-11-12T12:32:13.790Z,8.88
2022-11-12T12:35:08.385Z,10.65
2022-11-12T12:38:11.569Z,11.15
2022-11-12T12:41:04.624Z,10.18
2022-11-12T12:43:55.994Z,10.43
2022-11-12T12:46:48.239Z,10.57
2022-11-12T12:49:39.565Z,9.90
2022-11-12T12:52:26.354Z,10.38
2022-11-12T12:55:36.199Z,10.75
2022-11-12T12:58:28.917Z,10.90
2022-11-12T13:01:32.085Z,9.38
2022-11-12T13:04:54.222Z,9.73
2022-11-12T13:07:43.857Z,10.50
2022-11-12T13:10:52.230Z,8.93
2022-11-12T13:13:40.481Z,9.10
2022-11-12T13:16:59.236Z,10.35
2022-11-12T13:20:09.338Z,10.48
2022-11-12T13:22:57.002Z,10.40
2022-11-12T13:25:43.639Z,10.70
2022-11-12T13:28:30.367Z,9.48
2022-11-12T13:31:29.862Z,9.85
2022-11-12T13:34:22.682Z,10.13
2022-11-12T13:37:21.223Z,10.40
2022-11-12T13:40:15.534Z,10.77
2022-11-12T13:43:08.452Z,10.63
2022-11-12T13:46:00.539Z,13.30
2022-11-12T13:48:50.166Z,11.95
2022-11-12T13:51:42.970Z,12.77
2022-11-12T13:54:35.854Z,11.45
2022-11-12T13:57:30.945Z,9.60
2022-11-12T14:00:25.049Z,10.43
2022-11-12T14:03:18.291Z,10.35
2022-11-12T14:06:17.663Z,10.95
2022-11-12T14:09:45.058Z,7.85
2022-11-12T14:12:51.914Z,9.73
2022-11-12T14:15:57.153Z,9.98
2022-11-12T14:19:01.577Z,12.43
2022-11-12T14:22:01.205Z,10.82
2022-11-12T14:24:52.590Z,10.75
2022-11-12T14:27:40.929Z,9.85
2022-11-12T14:30:31.825Z,10.70
2022-11-12T14:33:21.125Z,10.13
2022-11-12T14:36:14.153Z,12.45
2022-11-12T14:39:04.100Z,11.18
2022-11-12T14:41:53.921Z,13.63
2022-11-12T14:44:49.573Z,11.68
2022-11-12T14:47:39.178Z,11.73
2022-11-12T14:50:37.432Z,10.77
2022-11-12T14:53:32.477Z,12.40
2022-11-12T14:56:35.766Z,13.25
2022-11-12T14:59:26.497Z,11.13
2022-11-12T15:02:32.514Z,11.27
2022-11-12T15:05:28.183Z,11.75
2022-11-12T15:08:34.538Z,13.27
2022-11-12T15:11:28.032Z,11.40
2022-11-12T15:14:26.309Z,11.55
2022-11-12T15:17:32.504Z,11.88
2022-11-12T15:20:24.432Z,13.45
2022-11-12T15:23:22.310Z,11.35
2022-11-12T15:26:27.545Z,12.60
2022-11-12T15:29:32.941Z,12.80
2022-11-12T15:32:38.148Z,13.18
2022-11-12T15:35:45.925Z,14.32
2022-11-12T15:38:41.517Z,15.25
2022-11-12T15:41:35.101Z,16.15
2022-11-12T15:44:27.280Z,13.70
2022-11-12T15:47:23.032Z,14.70
2022-11-12T15:50:19.239Z,13.05
2022-11-12T15:53:07.125Z,14.50
2022-11-12T15:55:53.832Z,13.82
2022-11-12T15:58:40.463Z,14.50
2022-11-12T16:01:27.682Z,12.25
2022-11-12T16:04:14.845Z,15.50
2022-11-12T16:07:05.853Z,16.88
2022-11-12T16:09:52.826Z,15.80
2022-11-12T16:12:39.351Z,17.05
2022-11-12T16:15:27.221Z,18.27
2022-11-12T16:18:13.871Z,18.60
2022-11-12T16:21:00.644Z,18.02
2022-11-12T16:23:49.270Z,14.23
2022-11-12T16:26:37.789Z,13.20
2022-11-12T16:29:24.434Z,14.00
2022-11-12T16:32:14.163Z,12.90
2022-11-12T16:35:01.534Z,15.10
2022-11-12T16:37:49.852Z,13.88
2022-11-12T16:40:44.577Z,14.85
2022-11-12T16:43:40.017Z,15.05
2022-11-12T16:46:38.729Z,13.38
2022-11-12T16:49:39.008Z,13.02
2022-11-12T16:52:28.780Z,12.10
2022-11-12T16:55:23.266Z,16.05
2022-11-12T16:58:21.184Z,15.90
2022-11-12T17:01:18.694Z,17.05
2022-11-12T17:04:10.439Z,23.17
2022-11-12T17:07:01.189Z,15.07
2022-11-12T17:10:04.875Z,17.23
2022-11-12T17:12:57.398Z,16.50
2022-11-12T17:15:51.921Z,16.73
2022-11-12T17:18:45.076Z,18.35
2022-11-12T17:21:37.864Z,20.60
2022-11-12T17:24:30.198Z,15.73
2022-11-12T17:27:21.242Z,16.38
2022-11-12T17:30:15.402Z,21.35
2022-11-12T17:33:08.162Z,18.30
2022-11-12T17:36:06.281Z,16.50
2022-11-12T17:39:01.587Z,15.10
2022-11-12T17:41:51.232Z,14.18
2022-11-12T17:44:37.576Z,14.48
2022-11-12T17:47:24.346Z,18.98
2022-11-12T17:50:12.837Z,15.02
2022-11-12T17:52:59.638Z,14.45
2022-11-12T17:55:46.333Z,14.95
2022-11-12T17:58:33.225Z,12.00
2022-11-12T18:01:21.904Z,15.88
2022-11-12T18:04:11.275Z,12.77
2022-11-12T18:06:59.104Z,12.27
2022-11-12T18:09:45.680Z,15.73
2022-11-12T18:12:32.965Z,16.85
2022-11-12T18:15:19.374Z,16.10
2022-11-12T18:18:06.132Z,13.95
2022-11-12T18:20:52.772Z,15.02
2022-11-12T18:23:42.037Z,15.15
2022-11-12T18:26:29.500Z,14.88
2022-11-12T18:29:16.657Z,14.40
2022-11-12T18:32:11.074Z,11.93
2022-11-12T18:34:57.479Z,13.13
2022-11-12T18:37:44.104Z,13.70
2022-11-12T18:40:32.350Z,11.27
2022-11-12T18:43:18.744Z,12.18
2022-11-12T18:46:05.467Z,12.50
2022-11-12T18:49:01.180Z,12.55
2022-11-12T18:51:47.798Z,13.50
2022-11-12T18:54:35.107Z,15.82
2022-11-12T18:57:23.396Z,13.02
2022-11-12T19:00:11.410Z,14.07
2022-11-12T19:02:58.747Z,13.30
2022-11-12T19:05:46.149Z,13.02
2022-11-12T19:08:33.551Z,11.00
2022-11-12T19:11:21.975Z,12.55
2022-11-12T19:14:11.189Z,19.95
2022-11-12T19:16:58.322Z,14.98
2022-11-12T19:19:44.767Z,14.60
2022-11-12T19:22:32.842Z,16.45
2022-11-12T19:25:19.376Z,14.48
2022-11-12T19:28:06.326Z,12.80
2022-11-12T19:30:54.484Z,14.60
2022-11-12T19:33:41.631Z,13.73
2022-11-12T19:36:28.580Z,14.43
2022-11-12T19:39:15.274Z,15.02
2022-11-12T19:42:03.955Z,15.10
2022-11-12T19:44:58.017Z,15.35
2022-11-12T19:47:53.064Z,17.75
2022-11-12T19:50:43.076Z,17.73
2022-11-12T19:53:36.663Z,16.90
2022-11-12T19:56:29.020Z,20.23
2022-11-12T19:59:16.657Z,19.90
2022-11-12T20:02:06.392Z,19.00
2022-11-12T20:05:00.761Z,22.17
2022-11-12T20:07:53.161Z,21.55
2022-11-12T20:10:43.674Z,18.70
2022-11-12T20:13:35.598Z,29.33
2022-11-12T20:16:30.049Z,16.65
2022-11-12T20:19:22.342Z,15.77
2022-11-12T20:22:26.732Z,15.00
2022-11-12T20:25:21.640Z,19.08
2022-11-12T20:28:13.287Z,16.63
2022-11-12T20:31:06.128Z,17.92
2022-11-12T20:33:59.569Z,18.02
2022-11-12T20:36:50.524Z,16.33
2022-11-12T20:39:41.852Z,17.63
2022-11-12T20:42:33.454Z,16.23
2022-11-12T20:45:27.904Z,15.85
2022-11-12T20:48:20.349Z,17.80
2022-11-12T20:51:28.130Z,16.40
2022-11-12T20:54:22.715Z,14.00
2022-11-12T20:57:18.653Z,14.85
2022-11-12T21:00:14.167Z,14.25
2022-11-12T21:03:06.463Z,12.63
2022-11-12T21:06:03.038Z,14.20
2022-11-12T21:08:54.731Z,13.48
2022-11-12T21:11:45.530Z,14.82
2022-11-12T21:14:38.990Z,10.00
2022-11-12T21:17:32.055Z,13.02
2022-11-12T21:20:23.012Z,15.20
2022-11-12T21:23:15.365Z,20.52
2022-11-12T21:26:09.305Z,14.35
2022-11-12T21:29:03.632Z,12.13
2022-11-12T21:31:56.657Z,12.43
2022-11-12T21:34:48.396Z,12.77
2022-11-12T21:37:38.449Z,13.32
2022-11-12T21:40:29.946Z,19.67
2022-11-12T21:43:19.327Z,16.70
2022-11-12T21:46:23.983Z,14.23
2022-11-12T21:49:18.171Z,14.02
2022-11-12T21:52:05.199Z,13.48
2022-11-12T21:54:51.472Z,15.68
2022-11-12T21:57:38.298Z,15.05
2022-11-12T22:00:41.705Z,13.05
2022-11-12T22:03:31.465Z,14.20
2022-11-12T22:06:20.429Z,11.38
2022-11-12T22:09:06.879Z,13.15
2022-11-12T22:11:53.378Z,13.20
2022-11-12T22:14:40.040Z,13.50
2022-11-12T22:17:27.003Z,13.02
2022-11-12T22:20:13.406Z,14.00
2022-11-12T22:23:01.615Z,17.65
2022-11-12T22:25:48.393Z,14.05
2022-11-12T22:28:35.227Z,13.93
2022-11-12T22:31:23.837Z,13.57
2022-11-12T22:34:10.645Z,9.13
2022-11-12T22:37:17.555Z,9.18
2022-11-12T22:40:11.999Z,9.93
2022-11-12T22:43:00.137Z,13.27
2022-11-12T22:45:47.049Z,11.55
2022-11-12T22:48:33.757Z,10.07
2022-11-12T22:51:28.044Z,8.95
2022-11-12T22:54:15.847Z,14.13
2022-11-12T22:57:03.797Z,10.75
2022-11-12T22:59:50.670Z,10.40
2022-11-12T23:02:37.321Z,9.95
2022-11-12T23:05:24.155Z,8.60
2022-11-12T23:08:10.975Z,10.77
2022-11-12T23:10:58.086Z,9.68
2022-11-12T23:13:46.864Z,11.88
2022-11-12T23:16:35.258Z,12.00
2022-11-12T23:19:22.426Z,10.30
2022-11-12T23:22:09.187Z,12.05
2022-11-12T23:24:56.073Z,12.57
2022-11-12T23:27:42.711Z,12.35
2022-11-12T23:30:31.197Z,10.10
2022-11-12T23:33:17.579Z,11.10
2022-11-12T23:36:08.987Z,11.52
2022-11-12T23:38:55.543Z,14.05
2022-11-12T23:41:44.486Z,10.13
2022-11-12T23:44:31.007Z,8.60
2022-11-12T23:47:22.058Z,10.07
2022-11-12T23:50:09.305Z,11.73
2022-11-12T23:52:55.928Z,12.20
2022-11-12T23:55:42.948Z,9.60
2022-11-12T23:58:30.587Z,12.50
